createdAt,value
2022-09-22T00:01:28.916Z,8.73
2022-09-22T00:04:00.309Z,8.66
2022-09-22T00:06:33.103Z,8.59
2022-09-22T00:09:02.049Z,8.48
2022-09-22T00:11:36.344Z,8.46
2022-09-22T00:14:13.186Z,8.45
2022-09-22T00:16:45.304Z,8.55
2022-09-22T00:19:21.797Z,8.64
2022-09-22T00:21:49.328Z,8.76
2022-09-22T00:24:18.222Z,9.02
2022-09-22T00:26:45.848Z,8.98
2022-09-22T00:29:13.467Z,9.07
2022-09-22T00:31:42.134Z,9.05
2022-09-22T00:34:14.539Z,9.03
2022-09-22T00:36:42.583Z,8.96
2022-09-22T00:39:09.998Z,9.00
2022-09-22T00:41:41.984Z,8.94
2022-09-22T00:44:21.242Z,9.03
2022-09-22T00:47:06.585Z,9.00
2022-09-22T00:49:49.746Z,9.05
2022-09-22T00:52:25.330Z,9.03
2022-09-22T00:54:57.199Z,9.06
2022-09-22T00:57:29.295Z,9.17
2022-09-22T00:59:57.583Z,9.20
2022-09-22T01:02:24.860Z,9.17
2022-09-22T01:04:52.916Z,9.15
2022-09-22T01:07:22.838Z,9.11
2022-09-22T01:09:50.213Z,9.09
2022-09-22T01:12:17.406Z,9.10
2022-09-22T01:15:15.652Z,9.12
2022-09-22T01:17:58.612Z,9.19
2022-09-22T01:20:44.402Z,9.09
2022-09-22T01:23:42.452Z,9.03
2022-09-22T01:26:33.877Z,8.97
2022-09-22T01:29:13.228Z,8.90
2022-09-22T01:31:57.172Z,8.90
2022-09-22T01:34:34.808Z,8.90
2022-09-22T01:37:34.436Z,9.05
2022-09-22T01:40:09.394Z,9.11
2022-09-22T01:42:44.362Z,9.19
2022-09-22T01:45:18.043Z,9.00
2022-09-22T01:47:50.631Z,8.92
2022-09-22T01:50:41.612Z,8.96
2022-09-22T01:53:14.415Z,9.09
2022-09-22T01:55:47.524Z,9.10
2022-09-22T01:58:34.533Z,9.15
2022-09-22T02:01:25.885Z,9.64
2022-09-22T02:04:05.276Z,9.93
2022-09-22T02:06:38.180Z,9.74
2022-09-22T02:09:15.988Z,9.71
2022-09-22T02:11:43.383Z,9.55
2022-09-22T02:14:12.111Z,9.50
2022-09-22T02:16:39.469Z,9.44
2022-09-22T02:19:20.417Z,9.37
2022-09-22T02:21:49.137Z,9.28
2022-09-22T02:24:34.957Z,9.29
2022-09-22T02:27:06.249Z,9.22
2022-09-22T02:29:39.830Z,9.24
2022-09-22T02:32:12.027Z,9.25
2022-09-22T02:34:39.639Z,9.18
2022-09-22T02:37:42.307Z,9.23
2022-09-22T02:40:24.900Z,9.21
2022-09-22T02:43:08.013Z,9.40
2022-09-22T02:45:35.319Z,9.33
2022-09-22T02:48:37.407Z,9.31
2022-09-22T02:51:05.429Z,9.29
2022-09-22T02:53:34.837Z,9.20
2022-09-22T02:56:03.619Z,9.22
2022-09-22T02:58:31.234Z,9.30
2022-09-22T03:00:58.384Z,9.30
2022-09-22T03:03:25.590Z,9.31
2022-09-22T03:05:53.081Z,9.32
2022-09-22T03:08:20.246Z,9.26
2022-09-22T03:10:47.482Z,9.33
2022-09-22T03:13:16.918Z,9.37
2022-09-22T03:15:46.959Z,9.31
2022-09-22T03:18:14.614Z,9.37
2022-09-22T03:20:42.956Z,9.63
2022-09-22T03:23:10.416Z,9.77
2022-09-22T03:25:37.618Z,9.78
2022-09-22T03:28:05.095Z,9.74
2022-09-22T03:30:32.486Z,9.69
2022-09-22T03:32:59.725Z,9.67
2022-09-22T03:35:27.185Z,9.66
2022-09-22T03:37:54.388Z,9.74
2022-09-22T03:40:22.781Z,9.68
2022-09-22T03:42:50.326Z,9.60
2022-09-22T03:45:17.667Z,9.59
2022-09-22T03:47:44.879Z,9.41
2022-09-22T03:50:12.242Z,9.21
2022-09-22T03:52:41.736Z,9.13
2022-09-22T03:55:09.667Z,9.15
2022-09-22T03:57:37.094Z,9.07
2022-09-22T04:00:05.651Z,9.22
2022-09-22T04:02:39.521Z,9.09
2022-09-22T04:05:07.294Z,9.05
2022-09-22T04:07:34.544Z,8.97
2022-09-22T04:10:02.780Z,8.92
2022-09-22T04:12:30.196Z,8.90
2022-09-22T04:14:57.448Z,9.10
2022-09-22T04:17:24.951Z,9.10
2022-09-22T04:19:52.174Z,9.03
2022-09-22T04:22:19.344Z,8.99
2022-09-22T04:24:46.691Z,9.02
2022-09-22T04:27:21.421Z,9.17
2022-09-22T04:29:49.681Z,9.09
2022-09-22T04:32:18.032Z,9.06
2022-09-22T04:34:45.373Z,9.09
2022-09-22T04:37:13.655Z,9.02
2022-09-22T04:39:41.560Z,8.89
2022-09-22T04:42:09.218Z,9.02
2022-09-22T04:44:36.756Z,8.97
2022-09-22T04:47:04.933Z,9.09
2022-09-22T04:49:32.174Z,9.13
2022-09-22T04:51:59.721Z,9.07
2022-09-22T04:54:26.992Z,9.08
2022-09-22T04:56:54.154Z,9.11
2022-09-22T04:59:21.573Z,9.32
2022-09-22T05:01:48.946Z,9.18
2022-09-22T05:04:16.140Z,9.29
2022-09-22T05:06:43.848Z,9.24
2022-09-22T05:09:11.012Z,9.11
2022-09-22T05:11:38.233Z,9.06
2022-09-22T05:14:05.648Z,9.05
2022-09-22T05:16:34.098Z,8.92
2022-09-22T05:19:01.370Z,9.04
2022-09-22T05:21:28.965Z,8.98
2022-09-22T05:23:56.224Z,8.95
2022-09-22T05:26:23.359Z,9.05
2022-09-22T05:28:51.690Z,9.05
2022-09-22T05:31:19.384Z,9.25
2022-09-22T05:33:46.588Z,9.30
2022-09-22T05:36:14.009Z,9.54
2022-09-22T05:38:41.222Z,9.34
2022-09-22T05:41:08.635Z,9.42
2022-09-22T05:43:36.013Z,9.59
2022-09-22T05:46:03.428Z,9.81
2022-09-22T05:48:31.566Z,9.86
2022-09-22T05:50:59.246Z,9.76
2022-09-22T05:53:27.304Z,9.93
2022-09-22T05:55:56.966Z,10.14
2022-09-22T05:58:24.901Z,10.28
2022-09-22T06:00:52.126Z,10.57
2022-09-22T06:03:19.545Z,10.84
2022-09-22T06:05:46.994Z,11.31
2022-09-22T06:08:14.536Z,11.69
2022-09-22T06:10:41.779Z,11.94
2022-09-22T06:13:10.704Z,12.37
2022-09-22T06:15:38.813Z,12.66
2022-09-22T06:18:11.845Z,12.72
2022-09-22T06:20:42.845Z,12.77
2022-09-22T06:23:12.732Z,12.67
2022-09-22T06:25:39.985Z,12.72
2022-09-22T06:28:09.797Z,12.68
2022-09-22T06:30:40.988Z,13.01
2022-09-22T06:33:10.096Z,13.26
2022-09-22T06:35:38.040Z,13.05
2022-09-22T06:38:07.158Z,12.86
2022-09-22T06:40:38.350Z,12.59
2022-09-22T06:43:12.137Z,12.46
2022-09-22T06:45:40.383Z,12.32
2022-09-22T06:48:10.354Z,12.32
2022-09-22T06:50:38.868Z,12.16
2022-09-22T06:53:07.574Z,12.10
2022-09-22T06:55:35.974Z,12.11
2022-09-22T06:58:03.610Z,12.05
2022-09-22T07:00:33.297Z,12.17
2022-09-22T07:03:09.202Z,12.17
2022-09-22T07:05:37.331Z,12.22
2022-09-22T07:08:09.099Z,12.45
2022-09-22T07:10:39.055Z,12.58
2022-09-22T07:13:06.715Z,12.82
2022-09-22T07:15:34.969Z,13.10
2022-09-22T07:18:02.959Z,13.32
2022-09-22T07:20:30.543Z,13.94
2022-09-22T07:23:00.629Z,14.24
2022-09-22T07:25:28.934Z,14.39
2022-09-22T07:28:05.093Z,13.77
2022-09-22T07:30:34.247Z,13.33
2022-09-22T07:33:01.866Z,13.06
2022-09-22T07:35:29.065Z,13.07
2022-09-22T07:37:57.112Z,13.18
2022-09-22T07:40:25.099Z,13.59
2022-09-22T07:42:52.444Z,15.38
2022-09-22T07:45:19.692Z,17.75
2022-09-22T07:48:05.637Z,19.74
2022-09-22T07:50:33.022Z,19.96
2022-09-22T07:53:00.902Z,18.34
2022-09-22T07:55:28.129Z,17.64
2022-09-22T07:57:59.946Z,17.15
2022-09-22T08:00:33.033Z,17.20
2022-09-22T08:03:01.385Z,18.01
2022-09-22T08:05:29.485Z,17.52
2022-09-22T08:07:58.332Z,16.95
2022-09-22T08:10:26.450Z,18.41
2022-09-22T08:12:55.399Z,17.32
2022-09-22T08:15:27.066Z,16.77
2022-09-22T08:17:58.391Z,16.00
2022-09-22T08:20:29.299Z,15.65
2022-09-22T08:23:03.328Z,15.00
2022-09-22T08:25:31.277Z,14.92
2022-09-22T08:28:01.259Z,14.70
2022-09-22T08:30:28.574Z,14.52
2022-09-22T08:32:55.794Z,14.25
2022-09-22T08:35:23.241Z,13.97
2022-09-22T08:37:50.822Z,13.70
2022-09-22T08:40:23.786Z,13.65
2022-09-22T08:42:54.525Z,13.47
2022-09-22T08:45:33.490Z,13.30
2022-09-22T08:48:34.676Z,12.98
2022-09-22T08:51:26.879Z,12.70
2022-09-22T08:53:59.658Z,12.52
2022-09-22T08:56:32.736Z,12.39
2022-09-22T08:59:12.270Z,12.46
2022-09-22T09:02:04.919Z,12.18
2022-09-22T09:04:51.303Z,12.07
2022-09-22T09:07:30.735Z,11.99
2022-09-22T09:10:26.749Z,11.93
2022-09-22T09:13:12.465Z,11.93
2022-09-22T09:15:55.768Z,11.95
2022-09-22T09:18:39.486Z,12.02
2022-09-22T09:21:10.663Z,12.01
2022-09-22T09:26:40.320Z,12.92
2022-09-22T09:29:17.013Z,13.70
2022-09-22T09:31:52.582Z,14.66
2022-09-22T09:34:29.038Z,15.33
2022-09-22T09:37:07.915Z,15.91
2022-09-22T09:39:40.409Z,15.78
2022-09-22T09:42:25.721Z,15.45
2022-09-22T09:44:54.859Z,14.98
2022-09-22T09:47:26.176Z,15.33
2022-09-22T09:49:54.825Z,15.69
2022-09-22T09:52:26.259Z,14.84
2022-09-22T09:54:54.518Z,15.28
2022-09-22T09:57:27.692Z,16.01
2022-09-22T10:00:32.925Z,17.97
2022-09-22T10:03:04.016Z,19.10
2022-09-22T10:05:35.501Z,17.88
2022-09-22T10:08:15.335Z,17.97
2022-09-22T10:10:43.254Z,19.02
2022-09-22T10:13:11.091Z,17.59
2022-09-22T10:15:41.694Z,16.47
2022-09-22T10:18:24.506Z,16.18
2022-09-22T10:21:20.981Z,16.35
2022-09-22T10:23:50.323Z,16.83
2022-09-22T10:26:23.440Z,15.88
2022-09-22T10:29:12.764Z,15.47
2022-09-22T10:31:41.809Z,15.52
2022-09-22T10:34:36.502Z,15.61
2022-09-22T10:37:10.695Z,15.55
2022-09-22T10:39:44.532Z,15.68
2022-09-22T10:42:28.728Z,15.66
2022-09-22T10:45:02.649Z,16.37
2022-09-22T10:47:43.854Z,16.84
2022-09-22T10:50:31.429Z,17.17
2022-09-22T10:53:27.678Z,17.56
2022-09-22T10:56:26.594Z,17.79
2022-09-22T10:59:20.135Z,17.52
2022-09-22T11:02:06.154Z,17.79
2022-09-22T11:04:40.933Z,18.04
2022-09-22T11:07:51.377Z,17.65
2022-09-22T11:10:52.637Z,18.02
2022-09-22T11:13:26.276Z,16.82
2022-09-22T11:16:27.953Z,15.82
2022-09-22T11:19:14.097Z,15.23
2022-09-22T11:21:51.085Z,15.15
2022-09-22T11:24:37.781Z,14.98
2022-09-22T11:27:15.761Z,15.03
2022-09-22T11:30:10.678Z,15.73
2022-09-22T11:32:42.018Z,15.94
2022-09-22T11:35:28.078Z,15.52
2022-09-22T11:38:13.374Z,15.21
2022-09-22T11:40:50.863Z,14.49
2022-09-22T11:43:48.532Z,15.12
2022-09-22T11:46:34.426Z,14.96
2022-09-22T11:49:23.297Z,15.20
2022-09-22T11:52:20.774Z,15.33
2022-09-22T11:55:09.065Z,14.82
2022-09-22T11:57:41.420Z,15.25
2022-09-22T12:00:17.487Z,15.49
2022-09-22T12:02:55.073Z,15.55
2022-09-22T12:05:29.148Z,15.40
2022-09-22T12:08:02.848Z,15.99
2022-09-22T12:10:39.992Z,15.72
2022-09-22T12:13:15.406Z,15.81
2022-09-22T12:15:46.756Z,15.51
2022-09-22T12:18:22.248Z,15.23
2022-09-22T12:21:10.129Z,15.50
2022-09-22T12:23:39.669Z,15.29
2022-09-22T12:26:10.421Z,15.59
2022-09-22T12:28:43.281Z,15.56
2022-09-22T12:31:16.197Z,15.84
2022-09-22T12:33:49.949Z,15.89
2022-09-22T12:36:39.187Z,15.66
2022-09-22T12:39:36.943Z,15.64
2022-09-22T12:42:07.199Z,15.13
2022-09-22T12:44:48.615Z,15.42
2022-09-22T12:47:20.894Z,15.44
2022-09-22T12:49:56.001Z,15.40
2022-09-22T12:52:41.733Z,15.28
2022-09-22T12:55:18.569Z,14.80
2022-09-22T12:57:51.200Z,14.98
2022-09-22T13:00:25.029Z,14.62
2022-09-22T13:02:56.703Z,14.40
2022-09-22T13:05:26.833Z,14.60
2022-09-22T13:07:58.420Z,14.15
2022-09-22T13:10:26.568Z,14.08
2022-09-22T13:13:02.860Z,13.90
2022-09-22T13:16:02.984Z,13.99
2022-09-22T13:18:34.838Z,14.30
2022-09-22T13:21:21.169Z,14.53
2022-09-22T13:23:51.678Z,14.57
2022-09-22T13:26:24.964Z,14.80
2022-09-22T13:29:13.388Z,14.65
2022-09-22T13:32:08.340Z,14.44
2022-09-22T13:34:37.297Z,13.63
2022-09-22T13:37:11.408Z,13.32
2022-09-22T13:39:46.873Z,13.10
2022-09-22T13:42:22.438Z,13.17
2022-09-22T13:45:17.191Z,12.97
2022-09-22T13:47:46.993Z,13.18
2022-09-22T13:50:22.508Z,13.35
2022-09-22T13:52:51.743Z,13.29
2022-09-22T13:55:30.447Z,13.34
2022-09-22T13:58:01.342Z,13.27
2022-09-22T14:01:08.771Z,13.06
2022-09-22T14:03:36.313Z,13.30
2022-09-22T14:06:05.815Z,13.10
2022-09-22T14:08:33.511Z,13.19
2022-09-22T14:11:02.243Z,13.23
2022-09-22T14:13:55.974Z,13.21
2022-09-22T14:16:44.946Z,13.19
2022-09-22T14:19:21.185Z,13.10
2022-09-22T14:21:57.068Z,13.27
2022-09-22T14:24:25.756Z,13.22
2022-09-22T14:27:03.700Z,13.02
2022-09-22T14:29:32.302Z,12.86
2022-09-22T14:32:25.567Z,12.84
2022-09-22T14:35:00.271Z,12.69
2022-09-22T14:37:35.744Z,12.63
2022-09-22T14:40:13.666Z,12.33
2022-09-22T14:42:41.369Z,12.29
2022-09-22T14:45:11.572Z,12.28
2022-09-22T14:47:42.447Z,12.16
2022-09-22T14:50:27.128Z,12.29
2022-09-22T14:53:01.163Z,12.11
2022-09-22T14:55:31.574Z,12.19
2022-09-22T14:58:04.575Z,12.04
2022-09-22T15:00:50.584Z,11.95
2022-09-22T15:03:28.213Z,11.67
2022-09-22T15:06:06.290Z,11.67
2022-09-22T15:08:33.879Z,11.61
2022-09-22T15:11:01.710Z,11.72
2022-09-22T15:13:30.791Z,11.76
2022-09-22T15:15:58.066Z,11.61
2022-09-22T15:18:30.339Z,11.38
2022-09-22T15:21:12.100Z,11.23
2022-09-22T15:23:47.069Z,11.00
2022-09-22T15:26:24.167Z,10.82
2022-09-22T15:28:54.723Z,10.69
2022-09-22T15:31:26.626Z,10.55
2022-09-22T15:33:59.363Z,10.47
2022-09-22T15:36:28.146Z,10.42
2022-09-22T15:39:07.278Z,10.37
2022-09-22T15:41:35.006Z,10.34
2022-09-22T15:44:03.267Z,10.29
2022-09-22T15:46:34.115Z,10.27
2022-09-22T15:49:06.385Z,10.16
2022-09-22T15:51:34.643Z,10.20
2022-09-22T15:54:02.847Z,10.15
2022-09-22T15:56:30.596Z,10.08
2022-09-22T15:59:01.579Z,10.00
2022-09-22T16:01:29.745Z,9.95
2022-09-22T16:04:01.030Z,9.86
2022-09-22T16:06:28.813Z,9.81
2022-09-22T16:08:56.473Z,9.71
2022-09-22T16:11:32.251Z,9.61
2022-09-22T16:14:03.702Z,9.53
2022-09-22T16:16:32.417Z,9.48
2022-09-22T16:19:00.573Z,9.34
2022-09-22T16:21:30.500Z,9.37
2022-09-22T16:24:03.418Z,9.33
2022-09-22T16:26:31.910Z,9.29
2022-09-22T16:28:59.561Z,9.19
2022-09-22T16:31:27.903Z,9.10
2022-09-22T16:33:58.280Z,8.99
2022-09-22T16:36:28.626Z,8.97
2022-09-22T16:38:56.567Z,8.91
2022-09-22T16:41:24.722Z,8.83
2022-09-22T16:43:53.291Z,8.80
2022-09-22T16:46:28.218Z,8.70
2022-09-22T16:49:07.594Z,8.67
2022-09-22T16:51:38.266Z,8.62
2022-09-22T16:54:07.568Z,8.62
2022-09-22T16:56:37.946Z,8.57
2022-09-22T16:59:05.759Z,8.52
2022-09-22T17:01:38.171Z,8.56
2022-09-22T17:04:07.410Z,8.61
2022-09-22T17:06:36.149Z,8.67
2022-09-22T17:09:05.822Z,8.68
2022-09-22T17:11:36.442Z,8.66
2022-09-22T17:14:12.213Z,8.68
2022-09-22T17:16:43.938Z,8.81
2022-09-22T17:19:29.837Z,8.84
2022-09-22T17:21:57.314Z,8.79
2022-09-22T17:24:26.447Z,8.82
2022-09-22T17:26:56.244Z,8.76
2022-09-22T17:29:25.294Z,8.72
2022-09-22T17:31:57.905Z,8.68
2022-09-22T17:34:30.322Z,8.62
2022-09-22T17:36:58.517Z,8.56
2022-09-22T17:39:27.269Z,8.53
2022-09-22T17:41:55.168Z,8.52
2022-09-22T17:44:23.850Z,8.51
2022-09-22T17:47:11.656Z,8.45
2022-09-22T17:49:58.335Z,8.35
2022-09-22T17:52:31.907Z,8.34
2022-09-22T17:55:09.708Z,8.29
2022-09-22T17:57:42.551Z,8.24
2022-09-22T18:00:16.243Z,8.21
2022-09-22T18:02:44.078Z,8.25
2022-09-22T18:05:14.066Z,8.19
2022-09-22T18:07:41.738Z,8.15
2022-09-22T18:10:15.994Z,8.12
2022-09-22T18:12:44.327Z,8.08
2022-09-22T18:15:13.555Z,8.00
2022-09-22T18:17:42.942Z,8.08
2022-09-22T18:20:13.328Z,8.02
2022-09-22T18:22:41.987Z,8.00
2022-09-22T18:25:10.509Z,8.09
2022-09-22T18:27:38.327Z,7.96
2022-09-22T18:30:07.031Z,8.07
2022-09-22T18:32:35.370Z,8.28
2022-09-22T18:35:02.738Z,8.51
2022-09-22T18:37:31.054Z,8.61
2022-09-22T18:39:58.341Z,8.67
2022-09-22T18:42:27.772Z,8.47
2022-09-22T18:44:55.085Z,8.08
2022-09-22T18:47:23.287Z,8.04
2022-09-22T18:49:51.870Z,7.93
2022-09-22T18:52:23.984Z,7.73
2022-09-22T18:54:56.166Z,7.58
2022-09-22T18:57:25.683Z,7.80
2022-09-22T18:59:54.126Z,7.67
2022-09-22T19:02:22.855Z,8.11
2022-09-22T19:04:54.155Z,7.74
2022-09-22T19:07:44.345Z,7.82
2022-09-22T19:10:14.188Z,7.79
2022-09-22T19:12:42.808Z,7.70
2022-09-22T19:15:13.693Z,7.73
2022-09-22T19:17:44.241Z,7.51
2022-09-22T19:20:17.491Z,7.34
2022-09-22T19:22:45.909Z,7.28
2022-09-22T19:25:13.381Z,7.23
2022-09-22T19:27:40.810Z,7.23
2022-09-22T19:30:09.835Z,7.14
2022-09-22T19:32:37.953Z,7.20
2022-09-22T19:35:07.259Z,7.31
2022-09-22T19:37:34.444Z,7.30
2022-09-22T19:40:02.177Z,7.33
2022-09-22T19:42:29.737Z,7.20
2022-09-22T19:44:56.904Z,7.15
2022-09-22T19:47:24.351Z,7.04
2022-09-22T19:49:51.785Z,6.93
2022-09-22T19:52:19.003Z,6.89
2022-09-22T19:54:47.279Z,6.89
2022-09-22T19:57:14.675Z,6.91
2022-09-22T19:59:42.066Z,7.11
2022-09-22T20:02:13.848Z,6.97
2022-09-22T20:04:41.158Z,7.04
2022-09-22T20:07:08.597Z,6.95
2022-09-22T20:09:36.583Z,6.93
2022-09-22T20:12:03.983Z,7.06
2022-09-22T20:14:32.047Z,6.95
2022-09-22T20:17:05.572Z,7.01
2022-09-22T20:19:38.457Z,7.04
2022-09-22T20:22:27.969Z,7.12
2022-09-22T20:24:58.035Z,7.09
2022-09-22T20:27:31.640Z,7.10
2022-09-22T20:30:00.251Z,7.10
2022-09-22T20:32:31.708Z,7.04
2022-09-22T20:34:59.135Z,7.05
2022-09-22T20:37:26.320Z,7.13
2022-09-22T20:39:53.810Z,7.05
2022-09-22T20:42:20.973Z,7.02
2022-09-22T20:44:49.248Z,6.94
2022-09-22T20:47:19.063Z,6.82
2022-09-22T20:49:51.296Z,6.71
2022-09-22T20:52:20.501Z,6.57
2022-09-22T20:54:48.313Z,6.49
2022-09-22T20:57:15.644Z,6.43
2022-09-22T20:59:45.904Z,6.66
2022-09-22T21:02:15.193Z,6.70
2022-09-22T21:04:42.449Z,6.67
2022-09-22T21:07:11.577Z,6.69
2022-09-22T21:09:57.374Z,6.62
2022-09-22T21:12:30.253Z,6.59
2022-09-22T21:14:59.095Z,6.68
2022-09-22T21:17:27.944Z,6.79
2022-09-22T21:19:59.305Z,6.90
2022-09-22T21:22:31.049Z,6.99
2022-09-22T21:24:58.327Z,6.82
2022-09-22T21:27:25.598Z,6.80
2022-09-22T21:29:53.549Z,6.84
2022-09-22T21:32:21.038Z,6.81
2022-09-22T21:34:48.343Z,6.61
2022-09-22T21:37:15.703Z,6.79
2022-09-22T21:39:43.090Z,6.81
2022-09-22T21:42:10.227Z,6.87
2022-09-22T21:44:37.555Z,6.78
2022-09-22T21:47:05.063Z,6.87
2022-09-22T21:49:33.027Z,6.86
2022-09-22T21:52:01.261Z,6.79
2022-09-22T21:54:28.644Z,6.68
2022-09-22T21:56:56.732Z,6.61
2022-09-22T21:59:23.903Z,6.66
2022-09-22T22:01:51.420Z,6.76
2022-09-22T22:04:18.887Z,6.85
2022-09-22T22:06:46.650Z,6.60
2022-09-22T22:09:17.171Z,6.46
2022-09-22T22:11:49.987Z,6.29
2022-09-22T22:14:19.899Z,6.11
2022-09-22T22:16:50.884Z,6.24
2022-09-22T22:19:21.109Z,6.29
2022-09-22T22:21:50.833Z,6.56
2022-09-22T22:24:44.223Z,6.62
2022-09-22T22:27:11.638Z,6.55
2022-09-22T22:29:39.963Z,6.44
2022-09-22T22:32:09.425Z,6.39
2022-09-22T22:34:37.562Z,6.17
2022-09-22T22:37:07.196Z,6.05
2022-09-22T22:39:34.454Z,5.97
2022-09-22T22:42:01.883Z,5.82
2022-09-22T22:44:29.102Z,5.78
2022-09-22T22:46:56.343Z,5.75
2022-09-22T22:49:23.776Z,5.70
2022-09-22T22:51:52.438Z,5.67
2022-09-22T22:54:19.650Z,5.88
2022-09-22T22:56:51.045Z,5.95
2022-09-22T22:59:18.811Z,6.24
2022-09-22T23:01:46.041Z,6.27
2022-09-22T23:04:13.922Z,6.33
2022-09-22T23:06:45.404Z,6.34
2022-09-22T23:09:15.875Z,6.23
2022-09-22T23:11:44.353Z,6.29
2022-09-22T23:14:13.107Z,6.15
2022-09-22T23:16:45.522Z,6.27
2022-09-22T23:19:15.847Z,6.32
2022-09-22T23:21:45.043Z,6.31
2022-09-22T23:24:17.188Z,6.38
2022-09-22T23:26:45.606Z,6.29
2022-09-22T23:29:13.359Z,5.96
2022-09-22T23:31:40.827Z,5.73
2022-09-22T23:34:08.390Z,5.77
2022-09-22T23:36:35.816Z,5.68
2022-09-22T23:39:04.540Z,5.63
2022-09-22T23:41:36.836Z,5.88
2022-09-22T23:44:06.938Z,5.84
2022-09-22T23:46:35.053Z,5.85
2022-09-22T23:49:02.508Z,5.63
2022-09-22T23:51:30.229Z,5.48
2022-09-22T23:53:58.139Z,5.42
2022-09-22T23:56:25.432Z,5.28
2022-09-22T23:58:52.653Z,5.31
